REU107 FIMP-FMEE
Flight info
| Callsign | REU107 |
|---|---|
| Flight time | 0h 31m |
| Altitude | 20000 |
| Route | SOBAT2A SOBAT SOBAT2R |
| Aircraft | B77W/H-SDE1E2E3FGHIJ2J3J4J5M1RWXY/LB1D1 |
Departure
| Time | 2026-05-08 09:20 |
|---|---|
| Airport | Sir Seewoosagur Ramgoolam International Airport (FIMP) |
Arrival
| Time | 2026-05-08 09:51 |
|---|---|
| Airport | Roland Garros Airport (FMEE) |
| Time | Latitude | Longitude | Altitude | Speed | Heading |
|---|---|---|---|---|---|
| 2026-05-08 09:05 | -20.43233 | 57.67960 | 196 ft | 0 kts | 237° |
| 2026-05-08 09:10 | -20.43229 | 57.67968 | 196 ft | 2 kts | 242° |
| 2026-05-08 09:11 | -20.43223 | 57.67983 | 196 ft | 2 kts | 254° |
| 2026-05-08 09:11 | -20.43220 | 57.67998 | 196 ft | 2 kts | 264° |
| 2026-05-08 09:11 | -20.43219 | 57.68014 | 196 ft | 2 kts | 274° |
| 2026-05-08 09:11 | -20.43221 | 57.68030 | 196 ft | 2 kts | 283° |
| 2026-05-08 09:12 | -20.43226 | 57.68045 | 196 ft | 2 kts | 294° |
| 2026-05-08 09:12 | -20.43233 | 57.68059 | 196 ft | 2 kts | 303° |
| 2026-05-08 09:12 | -20.43242 | 57.68072 | 196 ft | 2 kts | 313° |
| 2026-05-08 09:12 | -20.43253 | 57.68083 | 196 ft | 2 kts | 323° |
| 2026-05-08 09:13 | -20.43266 | 57.68092 | 196 ft | 2 kts | 333° |
| 2026-05-08 09:13 | -20.43278 | 57.68097 | 196 ft | 1 kts | 342° |
| 2026-05-08 09:13 | -20.43281 | 57.68098 | 196 ft | 0 kts | 343° |
| 2026-05-08 09:15 | -20.43251 | 57.68088 | 196 ft | 10 kts | 341° |
| 2026-05-08 09:15 | -20.43187 | 57.68055 | 196 ft | 10 kts | 329° |
| 2026-05-08 09:15 | -20.43130 | 57.68015 | 196 ft | 9 kts | 322° |
| 2026-05-08 09:16 | -20.43088 | 57.67961 | 196 ft | 9 kts | 296° |
| 2026-05-08 09:16 | -20.43058 | 57.67897 | 196 ft | 10 kts | 296° |
| 2026-05-08 09:16 | -20.43021 | 57.67822 | 196 ft | 12 kts | 297° |
| 2026-05-08 09:16 | -20.42979 | 57.67737 | 196 ft | 13 kts | 297° |
| 2026-05-08 09:17 | -20.42929 | 57.67658 | 196 ft | 12 kts | 318° |
| 2026-05-08 09:17 | -20.42857 | 57.67611 | 196 ft | 11 kts | 329° |
| 2026-05-08 09:17 | -20.42791 | 57.67563 | 197 ft | 11 kts | 323° |
| 2026-05-08 09:17 | -20.42731 | 57.67514 | 197 ft | 10 kts | 322° |
| 2026-05-08 09:18 | -20.42667 | 57.67478 | 197 ft | 10 kts | 341° |
| 2026-05-08 09:18 | -20.42601 | 57.67454 | 197 ft | 9 kts | 341° |
| 2026-05-08 09:18 | -20.42546 | 57.67423 | 197 ft | 8 kts | 304° |
| 2026-05-08 09:18 | -20.42517 | 57.67365 | 197 ft | 8 kts | 296° |
| 2026-05-08 09:19 | -20.42489 | 57.67306 | 197 ft | 8 kts | 296° |
| 2026-05-08 09:19 | -20.42487 | 57.67248 | 197 ft | 7 kts | 256° |
| 2026-05-08 09:19 | -20.42467 | 57.67239 | 197 ft | 4 kts | 61° |
| 2026-05-08 09:19 | -20.42482 | 57.67282 | 197 ft | 11 kts | 114° |
| 2026-05-08 09:20 | -20.42623 | 57.67580 | 197 ft | 85 kts | 116° |
| 2026-05-08 09:20 | -20.43017 | 57.68394 | 207 ft | 156 kts | 116° |
| 2026-05-08 09:20 | -20.43518 | 57.69453 | 857 ft | 165 kts | 116° |
| 2026-05-08 09:20 | -20.44031 | 57.70514 | 1761 ft | 164 kts | 116° |
| 2026-05-08 09:21 | -20.44581 | 57.71641 | 2206 ft | 184 kts | 116° |
| 2026-05-08 09:21 | -20.45214 | 57.72924 | 2696 ft | 204 kts | 120° |
| 2026-05-08 09:22 | -20.53516 | 57.69853 | 7026 ft | 292 kts | 232° |
| 2026-05-08 09:23 | -20.54701 | 57.68076 | 7940 ft | 295 kts | 232° |
| 2026-05-08 09:23 | -20.55884 | 57.66300 | 8977 ft | 296 kts | 233° |
| 2026-05-08 09:23 | -20.57076 | 57.64508 | 9835 ft | 298 kts | 234° |
| 2026-05-08 09:23 | -20.58282 | 57.62695 | 10097 ft | 309 kts | 234° |
| 2026-05-08 09:24 | -20.59602 | 57.60708 | 9995 ft | 346 kts | 234° |
| 2026-05-08 09:24 | -20.61015 | 57.58580 | 9966 ft | 354 kts | 234° |
| 2026-05-08 09:24 | -20.62424 | 57.56409 | 9968 ft | 359 kts | 238° |
| 2026-05-08 09:24 | -20.63421 | 57.53933 | 10005 ft | 365 kts | 253° |
| 2026-05-08 09:25 | -20.63814 | 57.51221 | 10143 ft | 380 kts | 269° |
| 2026-05-08 09:25 | -20.63528 | 57.48426 | 11081 ft | 381 kts | 281° |
| 2026-05-08 09:25 | -20.62962 | 57.45684 | 12146 ft | 380 kts | 282° |
| 2026-05-08 09:25 | -20.62377 | 57.42936 | 13041 ft | 384 kts | 282° |
| 2026-05-08 09:26 | -20.62017 | 57.40122 | 13913 ft | 389 kts | 271° |
| 2026-05-08 09:26 | -20.62130 | 57.37258 | 14819 ft | 394 kts | 264° |
| 2026-05-08 09:26 | -20.62393 | 57.34322 | 15764 ft | 398 kts | 264° |
| 2026-05-08 09:26 | -20.62662 | 57.31389 | 16687 ft | 403 kts | 264° |
| 2026-05-08 09:27 | -20.62934 | 57.28402 | 17578 ft | 408 kts | 264° |
| 2026-05-08 09:27 | -20.63208 | 57.25380 | 18447 ft | 412 kts | 264° |
| 2026-05-08 09:27 | -20.63483 | 57.22334 | 19285 ft | 416 kts | 265° |
| 2026-05-08 09:27 | -20.63757 | 57.19294 | 19869 ft | 416 kts | 265° |
| 2026-05-08 09:28 | -20.64034 | 57.16217 | 20047 ft | 416 kts | 265° |
| 2026-05-08 09:28 | -20.64306 | 57.13180 | 20066 ft | 415 kts | 265° |
| 2026-05-08 09:28 | -20.64584 | 57.10079 | 20068 ft | 415 kts | 265° |
| 2026-05-08 09:28 | -20.64853 | 57.07053 | 20066 ft | 415 kts | 265° |
| 2026-05-08 09:29 | -20.65128 | 57.03976 | 20065 ft | 414 kts | 264° |
| 2026-05-08 09:29 | -20.65397 | 57.00940 | 20068 ft | 415 kts | 264° |
| 2026-05-08 09:29 | -20.65671 | 56.97842 | 20068 ft | 415 kts | 264° |
| 2026-05-08 09:29 | -20.65940 | 56.94802 | 20069 ft | 415 kts | 264° |
| 2026-05-08 09:30 | -20.66211 | 56.91734 | 20069 ft | 415 kts | 264° |
| 2026-05-08 09:30 | -20.66477 | 56.88706 | 20070 ft | 415 kts | 264° |
| 2026-05-08 09:30 | -20.66749 | 56.85608 | 20068 ft | 415 kts | 264° |
| 2026-05-08 09:30 | -20.67020 | 56.82521 | 20070 ft | 414 kts | 264° |
| 2026-05-08 09:31 | -20.67288 | 56.79454 | 20071 ft | 414 kts | 264° |
| 2026-05-08 09:31 | -20.67556 | 56.76386 | 20071 ft | 414 kts | 264° |
| 2026-05-08 09:31 | -20.67822 | 56.73330 | 20074 ft | 414 kts | 264° |
| 2026-05-08 09:31 | -20.68087 | 56.70287 | 20077 ft | 415 kts | 264° |
| 2026-05-08 09:32 | -20.68353 | 56.67214 | 20074 ft | 414 kts | 264° |
| 2026-05-08 09:32 | -20.68618 | 56.64153 | 20076 ft | 415 kts | 264° |
| 2026-05-08 09:32 | -20.68883 | 56.61091 | 20075 ft | 414 kts | 264° |
| 2026-05-08 09:32 | -20.69147 | 56.58035 | 20074 ft | 414 kts | 264° |
| 2026-05-08 09:33 | -20.69408 | 56.54990 | 20076 ft | 415 kts | 264° |
| 2026-05-08 09:33 | -20.69671 | 56.51938 | 20079 ft | 414 kts | 264° |
| 2026-05-08 09:33 | -20.69932 | 56.48886 | 20076 ft | 415 kts | 264° |
| 2026-05-08 09:33 | -20.70196 | 56.45811 | 20074 ft | 415 kts | 264° |
| 2026-05-08 09:34 | -20.70456 | 56.42755 | 20075 ft | 415 kts | 264° |
| 2026-05-08 09:34 | -20.70716 | 56.39709 | 20076 ft | 414 kts | 264° |
| 2026-05-08 09:34 | -20.70977 | 56.36633 | 20076 ft | 415 kts | 264° |
| 2026-05-08 09:34 | -20.71236 | 56.33568 | 20076 ft | 414 kts | 265° |
| 2026-05-08 09:35 | -20.71494 | 56.30513 | 20058 ft | 411 kts | 265° |
| 2026-05-08 09:35 | -20.71746 | 56.27519 | 19714 ft | 405 kts | 265° |
| 2026-05-08 09:35 | -20.71791 | 56.24529 | 19185 ft | 403 kts | 271° |
| 2026-05-08 09:35 | -20.71724 | 56.21549 | 18681 ft | 401 kts | 271° |
| 2026-05-08 09:36 | -20.71654 | 56.18601 | 18170 ft | 400 kts | 271° |
| 2026-05-08 09:36 | -20.71581 | 56.15621 | 17650 ft | 398 kts | 271° |
| 2026-05-08 09:36 | -20.71511 | 56.12687 | 17118 ft | 397 kts | 271° |
| 2026-05-08 09:36 | -20.71440 | 56.09768 | 16587 ft | 395 kts | 271° |
| 2026-05-08 09:37 | -20.71368 | 56.06817 | 16046 ft | 393 kts | 271° |
| 2026-05-08 09:37 | -20.71298 | 56.03945 | 15542 ft | 391 kts | 271° |
| 2026-05-08 09:37 | -20.71226 | 56.01033 | 15052 ft | 389 kts | 271° |
| 2026-05-08 09:37 | -20.71154 | 55.98167 | 14581 ft | 387 kts | 271° |
| 2026-05-08 09:38 | -20.71083 | 55.95323 | 14036 ft | 386 kts | 271° |
| 2026-05-08 09:38 | -20.71012 | 55.92457 | 13461 ft | 384 kts | 271° |
| 2026-05-08 09:38 | -20.70941 | 55.89663 | 12936 ft | 381 kts | 271° |
| 2026-05-08 09:38 | -20.70869 | 55.86854 | 12423 ft | 377 kts | 271° |
| 2026-05-08 09:39 | -20.70797 | 55.84076 | 12103 ft | 368 kts | 271° |
| 2026-05-08 09:39 | -20.70726 | 55.81355 | 12067 ft | 367 kts | 271° |
| 2026-05-08 09:39 | -20.70659 | 55.78675 | 11905 ft | 360 kts | 271° |
| 2026-05-08 09:39 | -20.70589 | 55.76040 | 11645 ft | 346 kts | 271° |
| 2026-05-08 09:40 | -20.70519 | 55.73553 | 11559 ft | 329 kts | 271° |
| 2026-05-08 09:40 | -20.70460 | 55.71168 | 11541 ft | 311 kts | 270° |
| 2026-05-08 09:40 | -20.70404 | 55.68901 | 11455 ft | 297 kts | 270° |
| 2026-05-08 09:40 | -20.70342 | 55.66725 | 11083 ft | 295 kts | 271° |
| 2026-05-08 09:41 | -20.70284 | 55.64512 | 10665 ft | 295 kts | 270° |
| 2026-05-08 09:41 | -20.70214 | 55.62353 | 10285 ft | 293 kts | 271° |
| 2026-05-08 09:41 | -20.70135 | 55.60179 | 9898 ft | 292 kts | 271° |
| 2026-05-08 09:41 | -20.70049 | 55.58037 | 9521 ft | 290 kts | 271° |
| 2026-05-08 09:42 | -20.69971 | 55.55894 | 9142 ft | 289 kts | 271° |
| 2026-05-08 09:42 | -20.69888 | 55.53762 | 8751 ft | 288 kts | 271° |
| 2026-05-08 09:42 | -20.69801 | 55.51628 | 8354 ft | 287 kts | 271° |
| 2026-05-08 09:42 | -20.69727 | 55.49501 | 7966 ft | 286 kts | 271° |
| 2026-05-08 09:43 | -20.69644 | 55.47364 | 7578 ft | 286 kts | 271° |
| 2026-05-08 09:43 | -20.69565 | 55.45238 | 7089 ft | 289 kts | 271° |
| 2026-05-08 09:43 | -20.69485 | 55.43104 | 6674 ft | 292 kts | 271° |
| 2026-05-08 09:43 | -20.69402 | 55.40920 | 6302 ft | 293 kts | 271° |
| 2026-05-08 09:44 | -20.69319 | 55.38748 | 5952 ft | 293 kts | 271° |
| 2026-05-08 09:44 | -20.69235 | 55.36570 | 5608 ft | 293 kts | 271° |
| 2026-05-08 09:44 | -20.69151 | 55.34398 | 5270 ft | 292 kts | 272° |
| 2026-05-08 09:44 | -20.69342 | 55.32273 | 4920 ft | 288 kts | 249° |
| 2026-05-08 09:45 | -20.70331 | 55.30460 | 4595 ft | 280 kts | 225° |
| 2026-05-08 09:45 | -20.71875 | 55.29265 | 4267 ft | 272 kts | 201° |
| 2026-05-08 09:45 | -20.73664 | 55.28640 | 3988 ft | 266 kts | 190° |
| 2026-05-08 09:45 | -20.75467 | 55.28294 | 3772 ft | 258 kts | 179° |
| 2026-05-08 09:46 | -20.77147 | 55.28616 | 3602 ft | 242 kts | 151° |
| 2026-05-08 09:46 | -20.78424 | 55.29730 | 3465 ft | 227 kts | 127° |
| 2026-05-08 09:46 | -20.79274 | 55.31111 | 3340 ft | 216 kts | 117° |
| 2026-05-08 09:46 | -20.79958 | 55.32496 | 3224 ft | 207 kts | 116° |
| 2026-05-08 09:47 | -20.80611 | 55.33861 | 3141 ft | 198 kts | 115° |
| 2026-05-08 09:47 | -20.81213 | 55.35128 | 3079 ft | 188 kts | 115° |
| 2026-05-08 09:47 | -20.81798 | 55.36371 | 2867 ft | 186 kts | 115° |
| 2026-05-08 09:47 | -20.82383 | 55.37613 | 2650 ft | 185 kts | 115° |
| 2026-05-08 09:48 | -20.82968 | 55.38853 | 2417 ft | 184 kts | 115° |
| 2026-05-08 09:48 | -20.83531 | 55.40048 | 2184 ft | 171 kts | 115° |
| 2026-05-08 09:48 | -20.84043 | 55.41134 | 1973 ft | 159 kts | 115° |
| 2026-05-08 09:48 | -20.84524 | 55.42155 | 1780 ft | 147 kts | 114° |
| 2026-05-08 09:49 | -20.84976 | 55.43113 | 1597 ft | 142 kts | 114° |
| 2026-05-08 09:49 | -20.85421 | 55.44059 | 1413 ft | 141 kts | 114° |
| 2026-05-08 09:49 | -20.85858 | 55.44985 | 1233 ft | 141 kts | 114° |
| 2026-05-08 09:49 | -20.86300 | 55.45923 | 1049 ft | 140 kts | 114° |
| 2026-05-08 09:50 | -20.86748 | 55.46859 | 864 ft | 139 kts | 113° |
| 2026-05-08 09:50 | -20.87176 | 55.47786 | 700 ft | 140 kts | 113° |
| 2026-05-08 09:50 | -20.87622 | 55.48718 | 520 ft | 140 kts | 113° |
| 2026-05-08 09:50 | -20.88063 | 55.49656 | 355 ft | 138 kts | 112° |
| 2026-05-08 09:51 | -20.88497 | 55.50575 | 176 ft | 139 kts | 112° |
| 2026-05-08 09:51 | -20.88874 | 55.51387 | 152 ft | 93 kts | 116° |
| 2026-05-08 09:51 | -20.89078 | 55.51826 | 154 ft | 51 kts | 116° |
| 2026-05-08 09:51 | -20.89194 | 55.52069 | 156 ft | 25 kts | 117° |
| 2026-05-08 09:52 | -20.89256 | 55.52198 | 157 ft | 12 kts | 117° |
| 2026-05-08 09:52 | -20.89307 | 55.52235 | 158 ft | 9 kts | 197° |
| 2026-05-08 09:52 | -20.89367 | 55.52203 | 159 ft | 9 kts | 208° |
| 2026-05-08 09:52 | -20.89410 | 55.52153 | 160 ft | 8 kts | 268° |
| 2026-05-08 09:53 | -20.89388 | 55.52088 | 160 ft | 9 kts | 297° |
| 2026-05-08 09:53 | -20.89353 | 55.52018 | 160 ft | 11 kts | 297° |
| 2026-05-08 09:53 | -20.89312 | 55.51933 | 160 ft | 13 kts | 298° |
| 2026-05-08 09:53 | -20.89263 | 55.51835 | 161 ft | 15 kts | 298° |
| 2026-05-08 09:54 | -20.89214 | 55.51724 | 161 ft | 16 kts | 295° |
| 2026-05-08 09:54 | -20.89166 | 55.51617 | 161 ft | 15 kts | 296° |
| 2026-05-08 09:54 | -20.89120 | 55.51518 | 161 ft | 14 kts | 297° |
| 2026-05-08 09:54 | -20.89076 | 55.51424 | 161 ft | 13 kts | 297° |
| 2026-05-08 09:55 | -20.89041 | 55.51347 | 161 ft | 5 kts | 282° |
| 2026-05-08 09:55 | -20.89052 | 55.51332 | 161 ft | 4 kts | 210° |
| 2026-05-08 09:55 | -20.89081 | 55.51316 | 162 ft | 2 kts | 207° |
| 2026-05-08 09:55 | -20.89096 | 55.51308 | 162 ft | 1 kts | 206° |
| 2026-05-08 09:56 | -20.89099 | 55.51306 | 162 ft | 0 kts | 206° |